Ages Brookside, Kentucky
Current Conditions -  °F | °C
As of 1:55 AM on Sunday 26 Oct 2014 (Local Time) from KI35 Reporting Station
Clear Clear  
Wind Chill: 50°   Ceiling: Unl
Heat Index: 50°   Visibility: 3mi
Dew Point: 50°   Wind: 3mph
Humidity: 100%   Direction: 140°SE
Pressure: 30"   Gusts: NA
Location:  36.86°N, 83.25°W
Report Text: KI35 260555Z AUTO 14003KT 3SM CLR 10/10 A3000 RMK AO1
Loading
Personal Weather Stations






























Interactive Weather Map
Tropical Storm Tracking
New forecast layout! Learn more

10-Day Weather Forecast

Advertisements
Track Severe Weather on mobile